createdAt,value
2023-03-06T00:00:31.819Z,97783.72
2023-03-06T00:02:58.598Z,97779.22
2023-03-06T00:05:26.205Z,97778.25
2023-03-06T00:07:53.067Z,97763.63
2023-03-06T00:10:23.962Z,97778.13
2023-03-06T00:12:59.639Z,97776.38
2023-03-06T00:15:27.707Z,97776.22
2023-03-06T00:17:54.775Z,97780.38
2023-03-06T00:20:22.639Z,97783.78
2023-03-06T00:22:50.123Z,97777.63
2023-03-06T00:25:20.053Z,97786.16
2023-03-06T00:27:47.101Z,97784.59
2023-03-06T00:30:16.661Z,97763.19
2023-03-06T00:32:43.746Z,97763.31
2023-03-06T00:35:12.014Z,97781.19
2023-03-06T00:37:39.239Z,97767.31
2023-03-06T00:40:08.385Z,97750.28
2023-03-06T00:42:35.116Z,97758.75
2023-03-06T00:45:01.961Z,97740.16
2023-03-06T00:47:28.664Z,97754.63
2023-03-06T00:49:55.380Z,97759.56
2023-03-06T00:52:22.158Z,97739.50
2023-03-06T00:54:48.901Z,97751.97
2023-03-06T00:57:15.623Z,97752.94
2023-03-06T00:59:42.368Z,97731.81
2023-03-06T01:02:09.426Z,97741.94
2023-03-06T01:04:36.259Z,97732.66
2023-03-06T01:07:04.307Z,97721.28
2023-03-06T01:09:31.600Z,97734.69
2023-03-06T01:11:58.361Z,97731.00
2023-03-06T01:14:25.136Z,97735.97
2023-03-06T01:16:51.968Z,97723.09
2023-03-06T01:19:18.741Z,97731.53
2023-03-06T01:21:46.265Z,97728.13
2023-03-06T01:24:13.048Z,97725.50
2023-03-06T01:26:39.757Z,97718.38
2023-03-06T01:29:06.479Z,97724.50
2023-03-06T01:31:33.510Z,97721.66
2023-03-06T01:34:01.327Z,97723.44
2023-03-06T01:36:28.330Z,97727.69
2023-03-06T01:38:55.055Z,97727.56
2023-03-06T01:41:22.040Z,97717.13
2023-03-06T01:43:48.967Z,97709.34
2023-03-06T01:46:28.616Z,97709.59
2023-03-06T01:48:58.058Z,97682.19
2023-03-06T01:51:30.627Z,97697.47
2023-03-06T01:54:01.506Z,97701.09
2023-03-06T01:56:28.906Z,97707.97
2023-03-06T01:58:56.438Z,97699.97
2023-03-06T02:01:23.458Z,97701.66
2023-03-06T02:03:51.090Z,97695.59
2023-03-06T02:06:21.693Z,97698.13
2023-03-06T02:08:51.672Z,97704.81
2023-03-06T02:11:22.788Z,97691.91
2023-03-06T02:13:52.372Z,97683.38
2023-03-06T02:16:22.518Z,97696.94
2023-03-06T02:18:50.649Z,97695.84
2023-03-06T02:21:27.236Z,97697.66
2023-03-06T02:23:53.931Z,97696.00
2023-03-06T02:26:21.757Z,97682.00
2023-03-06T02:28:48.575Z,97680.97
2023-03-06T02:31:25.189Z,97678.31
2023-03-06T02:34:08.232Z,97672.25
2023-03-06T02:36:41.886Z,97671.44
2023-03-06T02:39:08.982Z,97675.94
2023-03-06T02:41:35.773Z,97669.81
2023-03-06T02:44:02.893Z,97675.94
2023-03-06T02:46:29.680Z,97669.75
2023-03-06T02:48:56.554Z,97654.56
2023-03-06T02:51:23.680Z,97674.84
2023-03-06T02:53:50.850Z,97673.78
2023-03-06T02:56:19.287Z,97671.97
2023-03-06T02:58:46.442Z,97667.75
2023-03-06T03:01:13.620Z,97667.59
2023-03-06T03:03:42.052Z,97675.38
2023-03-06T03:06:09.703Z,97671.84
2023-03-06T03:08:37.140Z,97663.09
2023-03-06T03:11:05.000Z,97658.75
2023-03-06T03:13:39.066Z,97649.22
2023-03-06T03:16:11.768Z,97655.28
2023-03-06T03:18:38.597Z,97645.72
2023-03-06T03:21:10.271Z,97646.63
2023-03-06T03:23:37.019Z,97645.19
2023-03-06T03:26:13.363Z,97641.00
2023-03-06T03:28:43.665Z,97644.53
2023-03-06T03:31:12.993Z,97633.63
2023-03-06T03:33:40.802Z,97634.38
2023-03-06T03:36:09.446Z,97641.53
2023-03-06T03:38:40.251Z,97642.38
2023-03-06T03:41:07.088Z,97637.88
2023-03-06T03:43:34.454Z,97635.22
2023-03-06T03:46:01.143Z,97638.53
2023-03-06T03:48:28.538Z,97633.25
2023-03-06T03:51:04.633Z,97636.63
2023-03-06T03:53:32.255Z,97628.75
2023-03-06T03:55:59.083Z,97626.19
2023-03-06T03:58:26.438Z,97612.78
2023-03-06T04:00:53.440Z,97613.38
2023-03-06T04:03:20.166Z,97624.47
2023-03-06T04:05:46.943Z,97621.00
2023-03-06T04:08:16.031Z,97616.66
2023-03-06T04:10:45.682Z,97623.69
2023-03-06T04:13:14.834Z,97626.28
2023-03-06T04:15:43.858Z,97623.69
2023-03-06T04:18:11.369Z,97622.03
2023-03-06T04:20:38.698Z,97620.41
2023-03-06T04:23:05.420Z,97616.16
2023-03-06T04:25:32.694Z,97624.97
2023-03-06T04:28:02.250Z,97615.50
2023-03-06T04:30:29.962Z,97616.47
2023-03-06T04:32:57.712Z,97613.03
2023-03-06T04:35:24.770Z,97602.78
2023-03-06T04:37:57.857Z,97604.38
2023-03-06T04:40:29.397Z,97601.03
2023-03-06T04:42:58.158Z,97598.25
2023-03-06T04:45:26.044Z,97593.03
2023-03-06T04:47:53.095Z,97603.31
2023-03-06T04:50:20.707Z,97606.91
2023-03-06T04:52:47.574Z,97601.09
2023-03-06T04:55:16.040Z,97603.06
2023-03-06T04:57:44.825Z,97597.25
2023-03-06T05:00:19.882Z,97588.78
2023-03-06T05:02:47.733Z,97586.22
2023-03-06T05:05:15.789Z,97569.88
2023-03-06T05:07:42.986Z,97570.41
2023-03-06T05:10:14.559Z,97571.25
2023-03-06T05:12:41.671Z,97566.75
2023-03-06T05:15:09.790Z,97571.06
2023-03-06T05:17:37.047Z,97563.31
2023-03-06T05:20:06.273Z,97568.34
2023-03-06T05:22:34.399Z,97574.44
2023-03-06T05:25:01.266Z,97568.59
2023-03-06T05:27:28.639Z,97568.78
2023-03-06T05:29:55.634Z,97561.00
2023-03-06T05:32:22.803Z,97561.94
2023-03-06T05:34:49.702Z,97559.38
2023-03-06T05:37:16.675Z,97548.09
2023-03-06T05:39:43.942Z,97549.94
2023-03-06T05:42:10.860Z,97549.22
2023-03-06T05:44:37.984Z,97554.50
2023-03-06T05:47:05.124Z,97550.13
2023-03-06T05:49:32.406Z,97557.09
2023-03-06T05:51:59.287Z,97558.78
2023-03-06T05:54:26.729Z,97551.94
2023-03-06T05:56:53.665Z,97551.09
2023-03-06T05:59:20.451Z,97558.78
2023-03-06T06:01:47.323Z,97553.59
2023-03-06T06:04:14.045Z,97553.19
2023-03-06T06:06:40.815Z,97552.50
2023-03-06T06:09:07.649Z,97557.91
2023-03-06T06:11:34.413Z,97549.13
2023-03-06T06:14:01.149Z,97544.88
2023-03-06T06:16:27.856Z,97547.22
2023-03-06T06:18:54.968Z,97546.06
2023-03-06T06:21:21.704Z,97548.63
2023-03-06T06:23:48.817Z,97555.88
2023-03-06T06:26:15.814Z,97552.63
2023-03-06T06:28:42.486Z,97554.78
2023-03-06T06:31:13.238Z,97551.66
2023-03-06T06:33:41.168Z,97542.25
2023-03-06T06:36:21.647Z,97545.81
2023-03-06T06:38:49.584Z,97535.38
2023-03-06T06:41:39.222Z,97536.13
2023-03-06T06:44:08.814Z,97542.97
2023-03-06T06:49:23.279Z,97544.91
2023-03-06T06:51:49.978Z,97560.22
2023-03-06T06:54:16.786Z,97582.22
2023-03-06T06:56:43.519Z,97602.31
2023-03-06T06:59:16.539Z,97599.47
2023-03-06T07:01:44.603Z,97587.00
2023-03-06T07:04:14.674Z,97598.06
2023-03-06T07:06:42.327Z,97592.69
2023-03-06T07:09:09.152Z,97601.47
2023-03-06T07:11:37.997Z,97608.84
2023-03-06T07:14:05.201Z,97611.84
2023-03-06T07:16:31.951Z,97608.06
2023-03-06T07:18:58.675Z,97607.00
2023-03-06T07:21:25.485Z,97607.69
2023-03-06T07:23:52.292Z,97604.94
2023-03-06T07:26:19.082Z,97611.91
2023-03-06T07:28:52.415Z,97600.63
2023-03-06T07:31:25.884Z,97602.81
2023-03-06T07:33:54.402Z,97602.34
2023-03-06T07:36:23.298Z,97593.06
2023-03-06T07:38:50.358Z,97603.63
2023-03-06T07:41:21.209Z,97603.47
2023-03-06T07:43:49.811Z,97589.06
2023-03-06T07:46:17.367Z,97603.47
2023-03-06T07:48:44.690Z,97597.91
2023-03-06T07:51:15.954Z,97618.72
2023-03-06T07:53:43.080Z,97597.84
2023-03-06T07:56:11.176Z,97610.41
2023-03-06T07:58:47.147Z,97610.16
2023-03-06T08:01:19.691Z,97592.84
2023-03-06T08:03:47.363Z,97597.47
2023-03-06T08:06:23.238Z,97599.59
2023-03-06T08:08:51.422Z,97596.38
2023-03-06T08:11:20.675Z,97599.00
2023-03-06T08:13:48.851Z,97593.31
2023-03-06T08:16:17.451Z,97593.00
2023-03-06T08:18:46.256Z,97584.97
2023-03-06T08:21:26.455Z,97583.94
2023-03-06T08:23:53.548Z,97590.88
2023-03-06T08:26:24.815Z,97597.47
2023-03-06T08:28:53.260Z,97591.56
2023-03-06T08:31:26.357Z,97592.91
2023-03-06T08:33:53.998Z,97588.34
2023-03-06T08:36:20.762Z,97590.88
2023-03-06T08:38:47.533Z,97592.13
2023-03-06T08:41:14.248Z,97593.31
2023-03-06T08:43:41.047Z,97583.72
2023-03-06T08:46:07.927Z,97584.66
2023-03-06T08:48:34.680Z,97591.94
2023-03-06T08:51:01.527Z,97587.41
2023-03-06T08:53:42.076Z,97582.34
2023-03-06T08:56:24.661Z,97564.06
2023-03-06T08:58:53.066Z,97589.84
2023-03-06T09:01:31.048Z,97585.16
2023-03-06T09:04:00.754Z,97584.81
2023-03-06T09:06:31.012Z,97591.84
2023-03-06T09:08:58.199Z,97587.22
2023-03-06T09:11:26.568Z,97576.06
2023-03-06T09:13:54.225Z,97556.94
2023-03-06T09:16:21.333Z,97572.28
2023-03-06T09:18:50.389Z,97565.72
2023-03-06T09:21:17.167Z,97565.00
2023-03-06T09:23:43.872Z,97571.78
2023-03-06T09:26:11.599Z,97570.16
2023-03-06T09:28:40.277Z,97554.63
2023-03-06T09:31:15.185Z,97560.75
2023-03-06T09:33:41.933Z,97549.19
2023-03-06T09:36:13.753Z,97546.84
2023-03-06T09:38:40.580Z,97544.47
2023-03-06T09:41:14.459Z,97551.69
2023-03-06T09:43:45.848Z,97544.09
2023-03-06T09:46:39.590Z,97541.50
2023-03-06T09:49:12.136Z,97545.59
2023-03-06T09:51:51.039Z,97548.41
2023-03-06T09:54:25.210Z,97551.69
2023-03-06T09:56:51.980Z,97551.72
2023-03-06T09:59:26.225Z,97548.69
2023-03-06T10:02:29.448Z,97547.38
2023-03-06T10:05:01.772Z,97545.28
2023-03-06T10:07:41.599Z,97535.94
2023-03-06T10:10:25.810Z,97525.22
2023-03-06T10:13:04.090Z,97534.47
2023-03-06T10:15:36.224Z,97524.06
2023-03-06T10:18:05.167Z,97526.53
2023-03-06T10:20:46.442Z,97517.31
2023-03-06T10:23:26.491Z,97520.22
2023-03-06T10:26:11.281Z,97529.59
2023-03-06T10:29:13.006Z,97523.25
2023-03-06T10:31:44.852Z,97513.69
2023-03-06T10:34:28.637Z,97504.44
2023-03-06T10:36:57.923Z,97512.50
2023-03-06T10:39:24.692Z,97509.69
2023-03-06T10:41:51.406Z,97498.94
2023-03-06T10:44:23.579Z,97504.88
2023-03-06T10:46:52.970Z,97493.09
2023-03-06T10:49:34.701Z,97484.91
2023-03-06T10:52:15.255Z,97481.22
2023-03-06T10:54:44.315Z,97482.06
2023-03-06T10:57:28.780Z,97471.00
2023-03-06T11:00:01.090Z,97476.97
2023-03-06T11:02:37.274Z,97462.22
2023-03-06T11:05:06.682Z,97452.50
2023-03-06T11:07:35.314Z,97449.03
2023-03-06T11:10:07.986Z,97446.59
2023-03-06T11:12:40.120Z,97446.25
2023-03-06T11:15:06.815Z,97445.03
2023-03-06T11:17:39.122Z,97442.63
2023-03-06T11:20:14.558Z,97437.72
2023-03-06T11:22:43.184Z,97444.78
2023-03-06T11:25:15.132Z,97437.84
2023-03-06T11:27:44.956Z,97433.22
2023-03-06T11:30:23.838Z,97434.38
2023-03-06T11:32:57.590Z,97443.94
2023-03-06T11:35:28.425Z,97416.47
2023-03-06T11:38:27.574Z,97430.53
2023-03-06T11:40:59.050Z,97419.94
2023-03-06T11:43:31.468Z,97420.28
2023-03-06T11:46:30.679Z,97412.03
2023-03-06T11:49:25.360Z,97411.69
2023-03-06T11:51:56.424Z,97397.91
2023-03-06T11:54:23.543Z,97401.56
2023-03-06T11:56:58.456Z,97400.13
2023-03-06T12:00:07.859Z,97402.72
2023-03-06T12:02:44.328Z,97396.44
2023-03-06T12:05:42.017Z,97388.69
2023-03-06T12:08:26.496Z,97394.44
2023-03-06T12:11:42.039Z,97394.16
2023-03-06T12:14:11.550Z,97385.88
2023-03-06T12:16:53.162Z,97381.59
2023-03-06T12:19:35.214Z,97380.13
2023-03-06T12:22:10.935Z,97380.56
2023-03-06T12:25:19.461Z,97378.03
2023-03-06T12:27:53.883Z,97376.06
2023-03-06T12:30:26.409Z,97370.41
2023-03-06T12:33:12.293Z,97378.50
2023-03-06T12:35:57.467Z,97370.56
2023-03-06T12:38:33.425Z,97373.97
2023-03-06T12:41:00.103Z,97364.56
2023-03-06T12:43:32.773Z,97362.53
2023-03-06T12:46:09.466Z,97360.09
2023-03-06T12:48:39.687Z,97361.44
2023-03-06T12:51:10.908Z,97357.25
2023-03-06T12:53:39.626Z,97357.56
2023-03-06T12:56:07.579Z,97350.09
2023-03-06T12:58:35.828Z,97348.19
2023-03-06T13:01:27.478Z,97354.53
2023-03-06T13:04:13.694Z,97351.72
2023-03-06T13:06:54.177Z,97351.22
2023-03-06T13:09:43.494Z,97348.13
2023-03-06T13:12:24.615Z,97353.91
2023-03-06T13:15:00.048Z,97353.69
2023-03-06T13:17:38.066Z,97349.34
2023-03-06T13:20:13.739Z,97351.41
2023-03-06T13:22:45.270Z,97348.88
2023-03-06T13:25:21.067Z,97350.09
2023-03-06T13:27:54.284Z,97346.81
2023-03-06T13:30:39.339Z,97345.75
2023-03-06T13:33:36.358Z,97341.31
2023-03-06T13:36:23.999Z,97342.63
2023-03-06T13:38:56.985Z,97343.69
2023-03-06T13:41:23.616Z,97337.59
2023-03-06T13:44:14.633Z,97338.31
2023-03-06T13:46:41.387Z,97315.59
2023-03-06T13:49:08.020Z,97332.06
2023-03-06T13:51:37.642Z,97330.03
2023-03-06T13:54:28.934Z,97331.22
2023-03-06T13:57:04.786Z,97325.09
2023-03-06T14:00:14.747Z,97333.28
2023-03-06T14:03:28.644Z,97332.44
2023-03-06T14:05:58.044Z,97329.88
2023-03-06T14:08:34.314Z,97333.59
2023-03-06T14:11:05.055Z,97324.69
2023-03-06T14:13:53.394Z,97328.09
2023-03-06T14:16:29.089Z,97324.13
2023-03-06T14:19:00.282Z,97324.63
2023-03-06T14:22:01.341Z,97323.91
2023-03-06T14:24:39.215Z,97327.16
2023-03-06T14:27:07.238Z,97320.66
2023-03-06T14:29:35.479Z,97321.88
2023-03-06T14:32:06.294Z,97324.75
2023-03-06T14:34:40.949Z,97329.31
2023-03-06T14:37:24.624Z,97322.13
2023-03-06T14:39:54.000Z,97326.44
2023-03-06T14:42:25.465Z,97313.78
2023-03-06T14:45:16.725Z,97324.69
2023-03-06T14:47:50.909Z,97321.09
2023-03-06T14:50:26.324Z,97321.09
2023-03-06T14:53:14.674Z,97304.31
2023-03-06T14:55:52.497Z,97320.97
2023-03-06T14:58:48.918Z,97314.03
2023-03-06T15:01:18.382Z,97312.59
2023-03-06T15:03:53.419Z,97314.63
2023-03-06T15:06:25.462Z,97309.69
2023-03-06T15:09:09.510Z,97303.47
2023-03-06T15:12:21.280Z,97310.75
2023-03-06T15:14:56.287Z,97299.84
2023-03-06T15:17:28.203Z,97294.56
2023-03-06T15:19:59.079Z,97312.66
2023-03-06T15:22:43.536Z,97298.63
2023-03-06T15:25:31.948Z,97308.81
2023-03-06T15:28:22.313Z,97294.66
2023-03-06T15:31:28.640Z,97310.50
2023-03-06T15:34:12.704Z,97316.50
2023-03-06T15:36:42.239Z,97315.19
2023-03-06T15:39:42.080Z,97316.75
2023-03-06T15:42:31.146Z,97316.41
2023-03-06T15:45:09.129Z,97309.44
2023-03-06T15:47:38.349Z,97322.38
2023-03-06T15:50:24.026Z,97313.53
2023-03-06T15:52:51.283Z,97317.25
2023-03-06T15:55:22.861Z,97316.41
2023-03-06T15:57:56.510Z,97310.16
2023-03-06T16:00:30.083Z,97305.59
2023-03-06T16:02:57.614Z,97312.78
2023-03-06T16:05:25.929Z,97303.56
2023-03-06T16:07:52.884Z,97314.59
2023-03-06T16:10:22.507Z,97315.66
2023-03-06T16:13:04.534Z,97315.03
2023-03-06T16:15:37.353Z,97318.97
2023-03-06T16:18:04.970Z,97302.41
2023-03-06T16:20:32.827Z,97311.28
2023-03-06T16:22:59.670Z,97302.69
2023-03-06T16:25:28.146Z,97310.84
2023-03-06T16:28:01.068Z,97327.63
2023-03-06T16:30:31.244Z,97314.28
2023-03-06T16:32:58.718Z,97317.28
2023-03-06T16:35:26.351Z,97325.50
2023-03-06T16:37:53.408Z,97306.19
2023-03-06T16:40:26.219Z,97310.47
2023-03-06T16:42:54.827Z,97314.69
2023-03-06T16:45:23.506Z,97312.16
2023-03-06T16:47:50.477Z,97313.84
2023-03-06T16:50:33.046Z,97315.66
2023-03-06T16:53:00.007Z,97327.03
2023-03-06T16:55:27.742Z,97326.19
2023-03-06T16:57:54.798Z,97324.72
2023-03-06T17:00:22.550Z,97322.91
2023-03-06T17:02:49.895Z,97319.78
2023-03-06T17:05:16.995Z,97321.47
2023-03-06T17:07:43.843Z,97325.28
2023-03-06T17:10:13.914Z,97332.56
2023-03-06T17:12:41.522Z,97322.19
2023-03-06T17:15:08.930Z,97334.72
2023-03-06T17:17:35.911Z,97336.84
2023-03-06T17:20:03.516Z,97336.84
2023-03-06T17:22:33.522Z,97332.53
2023-03-06T17:25:05.124Z,97338.63
2023-03-06T17:27:31.866Z,97348.34
2023-03-06T17:29:59.073Z,97347.72
2023-03-06T17:32:27.471Z,97352.25
2023-03-06T17:34:54.719Z,97351.34
2023-03-06T17:37:21.494Z,97346.59
2023-03-06T17:39:48.199Z,97351.34
2023-03-06T17:42:15.623Z,97346.19
2023-03-06T17:44:42.312Z,97345.47
2023-03-06T17:47:08.986Z,97339.41
2023-03-06T17:49:35.730Z,97347.69
2023-03-06T17:52:04.838Z,97348.94
2023-03-06T17:54:33.236Z,97334.66
2023-03-06T17:57:03.415Z,97346.53
2023-03-06T17:59:31.462Z,97352.31
2023-03-06T18:02:01.459Z,97351.91
2023-03-06T18:04:28.715Z,97353.50
2023-03-06T18:06:57.047Z,97342.03
2023-03-06T18:09:24.344Z,97350.56
2023-03-06T18:11:51.062Z,97346.78
2023-03-06T18:14:17.884Z,97338.78
2023-03-06T18:16:44.611Z,97345.41
2023-03-06T18:19:12.695Z,97357.72
2023-03-06T18:21:40.299Z,97363.91
2023-03-06T18:24:07.704Z,97345.09
2023-03-06T18:26:34.580Z,97353.00
2023-03-06T18:29:04.416Z,97350.34
2023-03-06T18:31:39.433Z,97356.38
2023-03-06T18:34:14.754Z,97358.66
2023-03-06T18:36:43.581Z,97345.16
2023-03-06T18:39:12.240Z,97371.78
2023-03-06T18:41:39.188Z,97373.22
2023-03-06T18:44:06.091Z,97369.16
2023-03-06T18:46:36.474Z,97355.09
2023-03-06T18:49:04.046Z,97365.94
2023-03-06T18:51:31.261Z,97361.69
2023-03-06T18:53:58.957Z,97375.53
2023-03-06T18:56:26.195Z,97357.84
2023-03-06T18:58:53.783Z,97377.81
2023-03-06T19:01:24.082Z,97373.25
2023-03-06T19:03:54.178Z,97375.59
2023-03-06T19:06:20.941Z,97377.28
2023-03-06T19:08:56.691Z,97389.50
2023-03-06T19:11:23.432Z,97361.16
2023-03-06T19:13:50.468Z,97387.06
2023-03-06T19:16:19.805Z,97392.22
2023-03-06T19:18:46.830Z,97396.53
2023-03-06T19:21:16.714Z,97397.38
2023-03-06T19:23:45.055Z,97399.34
2023-03-06T19:26:12.087Z,97394.09
2023-03-06T19:28:41.234Z,97400.00
2023-03-06T19:31:13.934Z,97393.91
2023-03-06T19:33:42.042Z,97393.78
2023-03-06T19:36:13.809Z,97396.13
2023-03-06T19:38:42.681Z,97384.13
2023-03-06T19:41:13.932Z,97402.84
2023-03-06T19:43:43.024Z,97399.31
2023-03-06T19:46:14.535Z,97405.41
2023-03-06T19:48:43.155Z,97400.97
2023-03-06T19:51:12.025Z,97381.63
2023-03-06T19:53:39.882Z,97405.47
2023-03-06T19:56:15.670Z,97389.28
2023-03-06T19:58:42.707Z,97391.16
2023-03-06T20:01:20.201Z,97401.59
2023-03-06T20:03:50.098Z,97400.63
2023-03-06T20:06:20.119Z,97407.88
2023-03-06T20:08:47.746Z,97404.31
2023-03-06T20:11:19.544Z,97411.97
2023-03-06T20:13:47.831Z,97416.41
2023-03-06T20:16:18.902Z,97428.59
2023-03-06T20:18:46.857Z,97419.16
2023-03-06T20:21:16.311Z,97417.34
2023-03-06T20:23:43.634Z,97410.91
2023-03-06T20:26:13.399Z,97420.81
2023-03-06T20:28:45.078Z,97424.41
2023-03-06T20:31:16.807Z,97421.94
2023-03-06T20:33:50.547Z,97429.00
2023-03-06T20:36:23.760Z,97431.00
2023-03-06T20:38:52.525Z,97439.91
2023-03-06T20:41:26.092Z,97432.44
2023-03-06T20:43:53.333Z,97434.22
2023-03-06T20:46:22.404Z,97436.84
2023-03-06T20:48:51.092Z,97440.31
2023-03-06T20:51:20.854Z,97437.00
2023-03-06T20:53:49.426Z,97441.53
2023-03-06T20:56:19.640Z,97445.22
2023-03-06T20:58:46.726Z,97442.09
2023-03-06T21:01:22.433Z,97395.34
2023-03-06T21:03:49.725Z,97443.25
2023-03-06T21:06:16.806Z,97443.47
2023-03-06T21:08:43.852Z,97441.00
2023-03-06T21:11:10.606Z,97451.53
2023-03-06T21:13:37.417Z,97446.94
2023-03-06T21:16:06.543Z,97442.91
2023-03-06T21:18:33.414Z,97431.28
2023-03-06T21:21:05.370Z,97438.78
2023-03-06T21:23:32.097Z,97442.16
2023-03-06T21:25:58.793Z,97441.31
2023-03-06T21:28:25.689Z,97431.38
2023-03-06T21:30:52.503Z,97441.22
2023-03-06T21:33:19.286Z,97440.78
2023-03-06T21:35:46.864Z,97445.06
2023-03-06T21:38:14.654Z,97450.41
2023-03-06T21:40:41.469Z,97449.38
2023-03-06T21:43:08.935Z,97449.00
2023-03-06T21:45:35.720Z,97451.25
2023-03-06T21:48:02.616Z,97445.81
2023-03-06T21:50:29.461Z,97455.34
2023-03-06T21:52:57.321Z,97454.53
2023-03-06T21:55:24.077Z,97441.97
2023-03-06T21:57:52.034Z,97453.03
2023-03-06T22:00:19.579Z,97453.69
2023-03-06T22:02:47.262Z,97448.34
2023-03-06T22:05:14.009Z,97448.34
2023-03-06T22:07:41.002Z,97447.47
2023-03-06T22:10:12.206Z,97450.97
2023-03-06T22:12:40.101Z,97444.13
2023-03-06T22:15:07.996Z,97446.63
2023-03-06T22:17:34.841Z,97450.22
2023-03-06T22:20:01.512Z,97453.88
2023-03-06T22:22:28.836Z,97447.97
2023-03-06T22:24:55.522Z,97453.59
2023-03-06T22:27:22.276Z,97447.78
2023-03-06T22:29:49.052Z,97445.25
2023-03-06T22:32:15.925Z,97443.56
2023-03-06T22:34:42.730Z,97438.50
2023-03-06T22:37:09.439Z,97446.13
2023-03-06T22:39:36.136Z,97438.41
2023-03-06T22:42:02.943Z,97433.09
2023-03-06T22:44:29.634Z,97433.34
2023-03-06T22:46:56.465Z,97425.47
2023-03-06T22:49:23.162Z,97441.28
2023-03-06T22:51:49.860Z,97446.28
2023-03-06T22:54:16.636Z,97452.84
2023-03-06T22:56:43.432Z,97452.66
2023-03-06T22:59:10.117Z,97460.09
2023-03-06T23:01:36.869Z,97462.31
2023-03-06T23:04:04.920Z,97463.66
2023-03-06T23:06:36.715Z,97464.03
2023-03-06T23:09:06.811Z,97462.88
2023-03-06T23:11:52.306Z,97459.41
2023-03-06T23:14:37.936Z,97465.50
2023-03-06T23:17:23.054Z,97475.19
2023-03-06T23:20:10.184Z,97469.16
2023-03-06T23:22:55.509Z,97460.53
2023-03-06T23:25:42.474Z,97456.31
2023-03-06T23:28:09.472Z,97441.97
2023-03-06T23:30:38.555Z,97458.94
2023-03-06T23:33:05.388Z,97459.69
2023-03-06T23:35:36.289Z,97460.00
2023-03-06T23:38:03.425Z,97447.69
2023-03-06T23:40:33.387Z,97440.19
2023-03-06T23:43:00.492Z,97457.34
2023-03-06T23:45:27.509Z,97457.47
2023-03-06T23:47:54.209Z,97461.94
2023-03-06T23:50:21.171Z,97462.59
2023-03-06T23:52:47.923Z,97472.31
2023-03-06T23:55:14.641Z,97468.84
2023-03-06T23:57:41.351Z,97471.09
